Time;durP1;ratioP1;P1;durP2;ratioP2;P2;SDS_P1;SDS_P2;PMS_P1;PMS_P2;Temp;Humidity;BMP_temperature;BMP_pressure;BME280_temperature;BME280_humidity;BME280_pressure;Samples;Min_cycle;Max_cycle;Signal;HPM_P1;HPM_P2
2022/06/16 00:01:37;;;;;;;1.23;0.67;;;;;;;22.70;nan;95518.59;4951528;29;20218;-64
2022/06/16 00:04:04;;;;;;;0.40;0.40;;;;;;;22.63;nan;95515.63;4964570;28;20718;-62
2022/06/16 00:06:31;;;;;;;0.70;0.70;;;;;;;22.70;nan;95513.25;4951457;28;20203;-61
2022/06/16 00:08:58;;;;;;;0.77;0.57;;;;;;;22.70;nan;95507.91;4951454;28;20200;-61
2022/06/16 00:11:25;;;;;;;0.47;0.47;;;;;;;22.68;nan;95512.78;4959296;28;20199;-62
2022/06/16 00:13:52;;;;;;;0.80;0.80;;;;;;;22.52;nan;95516.22;4956504;28;20684;-63
2022/06/16 00:16:21;;;;;;;1.03;0.63;;;;;;;22.61;nan;95515.16;4938550;28;20274;-64
2022/06/16 00:18:49;;;;;;;0.40;0.40;;;;;;;22.60;nan;95510.94;4938821;28;20680;-64
2022/06/16 00:21:17;;;;;;;0.70;0.70;;;;;;;22.62;nan;95500.72;4950260;28;20200;-63
2022/06/16 00:23:44;;;;;;;0.47;0.47;;;;;;;22.33;nan;95508.56;4951400;29;20648;-63
2022/06/16 00:26:13;;;;;;;1.63;0.60;;;;;;;22.50;nan;95513.88;4950435;28;20207;-64
2022/06/16 00:28:41;;;;;;;0.63;0.63;;;;;;;22.29;nan;95510.28;4951395;28;20250;-61
2022/06/16 00:31:10;;;;;;;0.47;0.47;;;;;;;22.29;nan;95512.94;4954079;28;20238;-63
2022/06/16 00:33:38;;;;;;;0.60;0.60;;;;;;;22.13;nan;95496.59;4955347;28;20205;-63
2022/06/16 00:36:05;;;;;;;1.50;0.77;;;;;;;22.17;nan;95510.09;4954812;29;20513;-63
2022/06/16 00:38:33;;;;;;;0.60;0.60;;;;;;;22.08;nan;95511.97;4950482;28;20291;-62
2022/06/16 00:41:00;;;;;;;0.67;0.60;;;;;;;21.93;nan;95515.13;4949102;29;20249;-64
2022/06/16 00:43:27;;;;;;;0.57;0.50;;;;;;;21.77;nan;95516.63;4953425;28;20242;-63
2022/06/16 00:45:59;;;;;;;1.30;0.90;;;;;;;21.86;nan;95512.88;4959264;28;20200;-63
2022/06/16 00:48:47;;;;;;;1.03;0.97;;;;;;;21.87;nan;95511.00;4954728;28;20268;-63
2022/06/16 00:51:17;;;;;;;0.67;0.67;;;;;;;21.89;nan;95508.81;4959339;28;20295;-62
2022/06/16 00:53:45;;;;;;;0.60;0.60;;;;;;;21.99;nan;95500.50;4956067;28;20198;-63
2022/06/16 00:56:16;;;;;;;0.63;0.63;;;;;;;22.18;nan;95503.69;4964182;28;20591;-63
2022/06/16 00:58:52;;;;;;;0.60;0.60;;;;;;;22.20;nan;95501.47;4954506;28;20347;-62
2022/06/16 01:01:21;;;;;;;1.23;0.87;;;;;;;22.44;nan;95499.13;4953995;28;21000;-62
2022/06/16 01:06:35;;;;;;;0.43;0.43;;;;;;;21.99;nan;95471.16;4954282;28;20538;-63
2022/06/16 01:09:15;;;;;;;0.50;0.50;;;;;;;22.12;nan;95497.69;4954106;28;20452;-64
2022/06/16 01:15:38;;;;;;;0.40;0.30;;;;;;;21.89;nan;95498.16;4954560;28;20457;-62
2022/06/16 01:18:15;;;;;;;1.00;0.80;;;;;;;21.97;nan;95500.03;4956270;28;20449;-63
2022/06/16 01:20:53;;;;;;;0.60;0.60;;;;;;;22.08;nan;95501.28;4954454;28;20203;-63
2022/06/16 01:23:45;;;;;;;1.20;0.87;;;;;;;22.17;nan;95496.75;4963936;28;20505;-63
2022/06/16 01:26:49;;;;;;;1.00;0.70;;;;;;;21.96;nan;95493.13;4935500;28;20449;-63
2022/06/16 01:29:33;;;;;;;0.47;0.47;;;;;;;21.70;nan;95500.25;4950330;28;21119;-63
2022/06/16 01:32:06;;;;;;;0.40;0.30;;;;;;;21.47;nan;95494.25;4962237;28;20534;-63
2022/06/16 01:35:26;;;;;;;0.73;0.67;;;;;;;21.56;nan;95489.72;4965365;28;20455;-64
2022/06/16 01:38:09;;;;;;;1.53;1.20;;;;;;;21.41;nan;95492.00;4921196;28;20477;-62
2022/06/16 01:40:53;;;;;;;0.43;0.43;;;;;;;21.61;nan;95486.13;4952288;29;20195;-63
2022/06/16 01:43:43;;;;;;;1.57;1.10;;;;;;;21.71;nan;95486.63;4964376;28;20502;-61
2022/06/16 01:46:17;;;;;;;0.27;0.27;;;;;;;21.79;nan;95482.41;4962646;28;20216;-64
2022/06/16 01:48:52;;;;;;;0.67;0.67;;;;;;;21.65;nan;95484.41;4968250;28;20467;-62
2022/06/16 01:51:28;;;;;;;0.30;0.30;;;;;;;21.54;nan;95478.56;4952351;28;21036;-62
2022/06/16 01:54:08;;;;;;;1.33;0.93;;;;;;;21.58;nan;95481.41;4938260;28;20534;-62
2022/06/16 01:56:44;;;;;;;0.50;0.40;;;;;;;21.70;nan;95474.38;4952401;29;20446;-63
2022/06/16 01:59:17;;;;;;;0.73;0.73;;;;;;;21.59;nan;95478.44;4965670;28;21033;-62
2022/06/16 02:01:50;;;;;;;0.50;0.43;;;;;;;21.54;nan;95464.44;4940714;29;20452;-62
2022/06/16 02:04:27;;;;;;;0.53;0.53;;;;;;;21.87;nan;95474.44;4945525;29;20492;-63
2022/06/16 02:06:58;;;;;;;2.00;0.80;;;;;;;22.07;nan;95471.16;4945963;28;20455;-62
2022/06/16 02:09:36;;;;;;;0.37;0.37;;;;;;;21.80;nan;95479.47;4950880;28;20580;-64
2022/06/16 02:12:12;;;;;;;0.80;0.43;;;;;;;21.90;nan;95473.03;4947118;28;20454;-63
2022/06/16 02:14:48;;;;;;;1.63;1.47;;;;;;;22.01;nan;95475.09;4954878;28;20459;-62
2022/06/16 02:17:43;;;;;;;0.37;0.37;;;;;;;21.70;nan;95478.91;4951220;28;20444;-65
2022/06/16 02:20:10;;;;;;;1.30;1.20;;;;;;;21.47;nan;95485.47;4943649;29;21110;-63
2022/06/16 02:22:38;;;;;;;0.63;0.63;;;;;;;21.70;nan;95478.91;4951741;28;20491;-63
2022/06/16 02:25:05;;;;;;;0.60;0.60;;;;;;;21.79;nan;95483.22;4952823;28;20531;-62
2022/06/16 02:27:32;;;;;;;0.30;0.30;;;;;;;21.71;nan;95496.50;4966467;28;20822;-63
2022/06/16 02:29:59;;;;;;;0.70;0.70;;;;;;;21.87;nan;95489.66;4951323;29;20538;-63
2022/06/16 02:32:59;;;;;;;0.83;0.80;;;;;;;22.03;nan;95494.25;4951713;29;20444;-62
2022/06/16 02:35:42;;;;;;;0.40;0.40;;;;;;;22.00;nan;95491.41;4890384;28;20546;-64
2022/06/16 02:38:27;;;;;;;1.07;1.07;;;;;;;22.05;nan;95485.91;4962369;28;20510;-62
2022/06/16 02:41:06;;;;;;;2.80;0.93;;;;;;;21.98;nan;95491.72;4960672;28;20590;-62
2022/06/16 02:43:45;;;;;;;0.33;0.33;;;;;;;22.13;nan;95493.16;4954483;28;20502;-63
2022/06/16 02:46:15;;;;;;;0.20;0.20;;;;;;;21.95;nan;95496.91;4961887;28;20199;-62
2022/06/16 02:48:56;;;;;;;0.40;0.40;;;;;;;22.01;nan;95498.31;4953910;28;20598;-62
2022/06/16 02:51:28;;;;;;;0.40;0.40;;;;;;;21.87;nan;95495.00;4950895;29;20195;-62
2022/06/16 02:54:08;;;;;;;0.40;0.40;;;;;;;21.73;nan;95499.66;4966543;28;20434;-63
2022/06/16 02:56:53;;;;;;;0.57;0.50;;;;;;;22.03;nan;95504.13;4951069;29;20834;-62
2022/06/16 02:59:28;;;;;;;0.50;0.50;;;;;;;21.81;nan;95506.91;4937756;29;20208;-61
2022/06/16 03:02:05;;;;;;;0.30;0.30;;;;;;;21.96;nan;95503.81;4967267;28;20243;-62
2022/06/16 03:04:44;;;;;;;0.37;0.37;;;;;;;21.77;nan;95513.94;4950195;29;20242;-62
2022/06/16 03:07:15;;;;;;;3.40;0.73;;;;;;;21.79;nan;95503.75;4952054;28;20538;-62
2022/06/16 03:09:43;;;;;;;0.20;0.20;;;;;;;21.82;nan;95508.50;4961833;28;20989;-62
2022/06/16 03:12:12;;;;;;;0.50;0.50;;;;;;;21.98;nan;95502.41;4952501;28;20444;-62
2022/06/16 03:14:42;;;;;;;0.57;0.57;;;;;;;21.92;nan;95502.84;4950492;29;20527;-62
2022/06/16 03:17:11;;;;;;;1.93;1.23;;;;;;;21.72;nan;95503.41;4950397;28;20538;-62
2022/06/16 03:19:40;;;;;;;1.17;0.70;;;;;;;21.61;nan;95502.13;4937325;29;20530;-62
2022/06/16 03:22:07;;;;;;;1.07;0.37;;;;;;;21.17;nan;95496.97;4950742;29;20515;-61
2022/06/16 03:24:35;;;;;;;0.67;0.67;;;;;;;21.30;nan;95493.38;4950396;29;20483;-62
2022/06/16 03:27:02;;;;;;;0.70;0.70;;;;;;;21.47;nan;95501.44;4951246;29;20605;-62
2022/06/16 03:29:36;;;;;;;0.43;0.43;;;;;;;21.36;nan;95500.16;4950079;28;20436;-62
2022/06/16 03:32:04;;;;;;;0.90;0.90;;;;;;;21.07;nan;95504.13;4948005;28;20452;-61
2022/06/16 03:34:30;;;;;;;0.53;0.53;;;;;;;21.22;nan;95499.47;4962794;28;20531;-62
2022/06/16 03:37:00;;;;;;;0.40;0.40;;;;;;;21.08;nan;95505.69;4950580;29;21211;-63
2022/06/16 03:39:38;;;;;;;0.50;0.50;;;;;;;21.40;nan;95501.91;4963014;28;20450;-64
2022/06/16 03:42:05;;;;;;;0.53;0.53;;;;;;;21.35;nan;95503.94;4942293;29;21119;-62
2022/06/16 03:44:32;;;;;;;2.57;1.63;;;;;;;21.61;nan;95496.78;4960263;28;20495;-63
2022/06/16 03:46:59;;;;;;;0.80;0.70;;;;;;;21.44;nan;95502.09;4936906;28;20475;-64
2022/06/16 03:49:34;;;;;;;1.73;1.10;;;;;;;21.12;nan;95501.31;4950258;28;20435;-63
2022/06/16 03:52:01;;;;;;;0.97;0.83;;;;;;;21.42;nan;95505.06;4951450;28;20442;-63
2022/06/16 03:54:33;;;;;;;1.20;1.10;;;;;;;21.40;nan;95501.91;4966210;28;20833;-63
2022/06/16 03:57:04;;;;;;;0.30;0.30;;;;;;;21.33;nan;95500.78;4966192;28;21036;-63
2022/06/16 03:59:31;;;;;;;1.80;0.93;;;;;;;21.44;nan;95507.41;4950329;29;20455;-64
2022/06/16 04:02:06;;;;;;;0.73;0.73;;;;;;;21.47;nan;95509.44;4949353;28;20451;-62
2022/06/16 04:04:36;;;;;;;0.70;0.70;;;;;;;21.71;nan;95501.84;4950273;28;20647;-63
2022/06/16 04:07:07;;;;;;;0.50;0.50;;;;;;;21.99;nan;95492.50;4953950;29;20439;-64
2022/06/16 04:09:39;;;;;;;0.77;0.57;;;;;;;22.21;nan;95504.94;4944828;29;20464;-63
2022/06/16 04:12:07;;;;;;;0.63;0.63;;;;;;;22.22;nan;95507.28;4939458;28;20589;-64
2022/06/16 04:14:37;;;;;;;0.70;0.67;;;;;;;22.27;nan;95509.81;4940071;29;20451;-63
2022/06/16 04:17:06;;;;;;;0.53;0.53;;;;;;;22.22;nan;95501.97;4952394;28;20455;-62
2022/06/16 04:20:11;;;;;;;1.00;0.90;;;;;;;22.26;nan;95505.56;4968495;28;20442;-64
2022/06/16 04:22:31;;;;;;;0.60;0.60;;;;;;;22.08;nan;95506.63;4943675;29;20462;-64
2022/06/16 04:25:12;;;;;;;0.77;0.77;;;;;;;22.23;nan;95508.84;4953112;28;20439;-64
2022/06/16 04:27:44;;;;;;;0.53;0.53;;;;;;;21.89;nan;95514.16;4969793;28;20451;-64
2022/06/16 04:30:14;;;;;;;0.70;0.70;;;;;;;21.97;nan;95508.03;4954203;28;20851;-64
2022/06/16 04:32:43;;;;;;;0.57;0.57;;;;;;;21.95;nan;95505.69;4945122;29;20686;-63
2022/06/16 04:35:11;;;;;;;0.60;0.60;;;;;;;22.28;nan;95511.34;4954417;28;20440;-63
2022/06/16 04:37:48;;;;;;;1.53;0.83;;;;;;;22.04;nan;95505.72;4960055;28;20479;-68
2022/06/16 04:40:15;;;;;;;4.77;4.30;;;;;;;21.97;nan;95500.03;4965411;28;20192;-64
2022/06/16 04:42:43;;;;;;;4.27;3.50;;;;;;;22.12;nan;95492.38;4953330;29;20462;-64
2022/06/16 04:45:11;;;;;;;14.77;10.97;;;;;;;22.35;nan;95502.91;4969407;28;20254;-66
2022/06/16 04:47:39;;;;;;;2.83;2.53;;;;;;;22.23;nan;95502.72;4953238;28;20297;-65
2022/06/16 04:50:10;;;;;;;1.23;1.07;;;;;;;22.39;nan;95507.28;4940108;28;20436;-64
2022/06/16 04:52:37;;;;;;;0.67;0.47;;;;;;;22.06;nan;95503.50;4942067;28;20529;-65
2022/06/16 04:55:06;;;;;;;1.33;1.17;;;;;;;21.95;nan;95503.00;4953579;29;20695;-64
2022/06/16 04:57:54;;;;;;;4.20;3.47;;;;;;;22.09;nan;95514.34;4934050;28;20204;-65
2022/06/16 05:00:39;;;;;;;1.37;1.27;;;;;;;21.97;nan;95516.81;4937745;28;20664;-64
2022/06/16 05:03:39;;;;;;;1.97;1.43;;;;;;;22.10;nan;95509.78;4933305;29;20720;-69
2022/06/16 05:06:18;;;;;;;3.47;3.17;;;;;;;22.39;nan;95507.28;4952740;28;20200;-66
2022/06/16 05:08:56;;;;;;;2.50;2.30;;;;;;;22.14;nan;95502.72;4954214;28;20557;-69
2022/06/16 05:11:50;;;;;;;3.33;1.87;;;;;;;22.17;nan;95506.66;4951090;28;20593;-69
2022/06/16 05:14:35;;;;;;;0.93;0.87;;;;;;;21.63;nan;95507.94;4941066;28;20275;-69
2022/06/16 05:17:19;;;;;;;1.30;1.20;;;;;;;21.84;nan;95501.72;4951292;28;20203;-68
2022/06/16 05:19:52;;;;;;;1.67;1.57;;;;;;;22.04;nan;95503.03;4954653;28;20567;-68
2022/06/16 05:22:37;;;;;;;1.20;1.10;;;;;;;22.37;nan;95509.47;4953670;28;20230;-69
2022/06/16 05:25:19;;;;;;;0.53;0.47;;;;;;;22.39;nan;95512.63;4951984;29;20310;-69
2022/06/16 05:27:58;;;;;;;0.97;0.70;;;;;;;22.25;nan;95517.34;4952329;29;20469;-68
2022/06/16 05:30:58;;;;;;;0.77;0.77;;;;;;;22.37;nan;95514.06;4911560;28;20230;-69
2022/06/16 05:33:36;;;;;;;0.70;0.70;;;;;;;22.11;nan;95508.69;4963591;28;20195;-69
2022/06/16 05:36:28;;;;;;;1.17;1.07;;;;;;;22.17;nan;95518.09;4952193;28;20251;-68
2022/06/16 05:39:24;;;;;;;0.53;0.53;;;;;;;22.52;nan;95522.38;4954399;28;20287;-68
2022/06/16 05:42:04;;;;;;;1.03;1.03;;;;;;;22.58;nan;95521.16;4953503;28;20210;-69
2022/06/16 05:44:46;;;;;;;0.70;0.70;;;;;;;22.55;nan;95515.63;4981903;28;20229;-68
2022/06/16 05:47:48;;;;;;;1.33;1.23;;;;;;;22.60;nan;95508.25;4932197;29;20219;-69
2022/06/16 05:50:17;;;;;;;0.77;0.77;;;;;;;22.65;nan;95526.78;4944457;28;20211;-69
2022/06/16 05:52:45;;;;;;;0.80;0.80;;;;;;;22.07;nan;95521.09;4952321;28;20192;-69
2022/06/16 05:55:26;;;;;;;0.60;0.60;;;;;;;21.88;nan;95523.25;4952059;28;20196;-68
2022/06/16 05:57:53;;;;;;;0.70;0.70;;;;;;;21.98;nan;95522.97;4951998;28;20638;-69
2022/06/16 06:00:20;;;;;;;0.40;0.40;;;;;;;22.74;nan;95522.22;4951942;28;20204;-68
2022/06/16 06:02:56;;;;;;;1.50;1.40;;;;;;;22.01;nan;95512.44;4953187;29;20235;-69
2022/06/16 06:05:30;;;;;;;0.70;0.70;;;;;;;22.53;nan;95523.94;4951856;28;20616;-69
2022/06/16 06:16:35;;;;;;;7.17;1.63;;;;;;;22.82;nan;95521.44;4940370;29;20271;-69
2022/06/16 06:19:23;;;;;;;0.67;0.60;;;;;;;22.50;nan;95516.53;4952002;29;20583;-68
2022/06/16 06:22:00;;;;;;;1.33;1.20;;;;;;;23.48;nan;95500.50;4952082;28;20205;-69
2022/06/16 06:24:31;;;;;;;2.53;1.63;;;;;;;23.39;nan;95507.78;4951652;29;20242;-69
2022/06/16 06:27:15;;;;;;;1.03;0.93;;;;;;;22.97;nan;95512.91;4951849;29;20211;-69
2022/06/16 06:29:43;;;;;;;0.87;0.87;;;;;;;23.48;nan;95506.66;4951392;28;20188;-68
2022/06/16 06:32:11;;;;;;;1.20;1.10;;;;;;;23.52;nan;95514.81;4951726;29;20263;-68
2022/06/16 06:34:39;;;;;;;1.10;1.07;;;;;;;23.76;nan;95501.59;4954458;28;20221;-68
2022/06/16 06:37:06;;;;;;;1.20;1.10;;;;;;;23.48;nan;95511.22;4963170;28;20199;-69
2022/06/16 06:39:34;;;;;;;6.90;3.50;;;;;;;23.99;nan;95510.94;4953023;28;20290;-68
2022/06/16 06:42:03;;;;;;;2.53;1.50;;;;;;;23.85;nan;95510.38;4964388;28;20200;-69
2022/06/16 06:44:34;;;;;;;1.33;1.23;;;;;;;23.83;nan;95523.31;4950913;28;20231;-69
2022/06/16 06:47:02;;;;;;;2.63;2.43;;;;;;;23.99;nan;95513.63;4952799;28;20278;-69
2022/06/16 06:49:29;;;;;;;1.90;1.80;;;;;;;23.87;nan;95519.66;4952860;28;20200;-69
2022/06/16 06:51:56;;;;;;;1.27;1.17;;;;;;;23.88;nan;95510.53;4966441;28;20207;-68
2022/06/16 06:54:23;;;;;;;4.50;1.97;;;;;;;24.14;nan;95501.56;4952709;28;20351;-67
2022/06/16 06:56:51;;;;;;;1.40;1.07;;;;;;;23.77;nan;95511.22;4952758;28;20196;-69
2022/06/16 06:59:19;;;;;;;1.57;1.43;;;;;;;24.13;nan;95487.41;4952400;28;20258;-69
2022/06/16 07:01:49;;;;;;;1.83;1.40;;;;;;;24.27;nan;95497.84;4952989;28;20188;-69
2022/06/16 07:04:17;;;;;;;1.50;1.40;;;;;;;24.22;nan;95498.03;4956256;28;20293;-69
2022/06/16 07:06:46;;;;;;;2.80;1.90;;;;;;;24.26;nan;95499.75;4961245;28;20322;-70
2022/06/16 07:09:16;;;;;;;1.10;1.10;;;;;;;24.19;nan;95504.84;4950940;29;20295;-69
2022/06/16 07:11:43;;;;;;;1.03;0.97;;;;;;;23.90;nan;95486.88;4952556;28;20200;-69
2022/06/16 07:14:11;;;;;;;1.73;1.63;;;;;;;24.68;nan;95495.94;4951704;28;20711;-68
2022/06/16 07:16:38;;;;;;;2.40;1.93;;;;;;;24.28;nan;95497.53;4952289;28;20188;-67
2022/06/16 07:19:05;;;;;;;1.50;1.33;;;;;;;24.26;nan;95491.72;4952156;28;20235;-69
2022/06/16 07:21:33;;;;;;;2.17;1.97;;;;;;;24.92;nan;95488.00;4952262;28;20195;-67
2022/06/16 07:24:00;;;;;;;2.33;1.73;;;;;;;25.19;nan;95488.50;4952266;28;20226;-68
2022/06/16 07:26:27;;;;;;;2.30;1.83;;;;;;;24.87;nan;95482.06;4952301;28;20211;-68
2022/06/16 07:28:57;;;;;;;2.80;2.60;;;;;;;25.03;nan;95481.09;4951804;28;20206;-69
2022/06/16 07:31:23;;;;;;;1.97;1.87;;;;;;;25.42;nan;95484.31;4951983;28;20298;-70
2022/06/16 07:34:01;;;;;;;2.30;1.63;;;;;;;25.30;nan;95481.56;4952283;29;20200;-68
2022/06/16 07:36:28;;;;;;;2.17;2.03;;;;;;;25.91;nan;95483.19;4947991;28;20193;-68
2022/06/16 07:38:55;;;;;;;1.70;1.57;;;;;;;25.41;nan;95477.38;4952660;28;20203;-68
2022/06/16 07:41:31;;;;;;;2.20;2.00;;;;;;;24.81;nan;95478.81;4954594;28;20196;-70
2022/06/16 07:43:58;;;;;;;1.90;1.17;;;;;;;25.16;nan;95483.78;4952000;28;20667;-69
2022/06/16 07:46:25;;;;;;;3.20;2.00;;;;;;;25.03;nan;95483.78;4956371;28;20204;-68
2022/06/16 07:48:53;;;;;;;2.50;1.40;;;;;;;25.15;nan;95482.22;4951764;28;20210;-69
2022/06/16 07:51:20;;;;;;;1.73;1.63;;;;;;;25.07;nan;95486.59;4951904;28;20204;-69
2022/06/16 07:53:48;;;;;;;2.10;1.87;;;;;;;25.56;nan;95476.72;4951566;28;20196;-69
2022/06/16 07:56:16;;;;;;;1.63;1.50;;;;;;;25.84;nan;95480.25;4943736;28;20200;-69
2022/06/16 07:58:43;;;;;;;2.00;1.80;;;;;;;25.80;nan;95479.38;4960934;28;20476;-69
2022/06/16 08:01:11;;;;;;;2.90;2.53;;;;;;;25.91;nan;95483.19;4964254;28;20199;-69
2022/06/16 08:03:38;;;;;;;1.60;1.50;;;;;;;26.19;nan;95484.03;4938672;28;20334;-70
2022/06/16 08:06:09;;;;;;;1.77;1.67;;;;;;;25.34;nan;95482.47;4951241;29;20219;-68
2022/06/16 08:08:37;;;;;;;2.40;2.07;;;;;;;25.38;nan;95481.53;4951885;28;20287;-69
2022/06/16 08:11:05;;;;;;;2.10;1.93;;;;;;;25.50;nan;95478.84;4951662;29;20203;-68
2022/06/16 08:13:32;;;;;;;1.80;1.63;;;;;;;26.22;nan;95482.59;4962566;28;20199;-69
2022/06/16 08:15:59;;;;;;;2.30;2.03;;;;;;;26.04;nan;95484.75;4953579;28;20196;-68
2022/06/16 08:18:26;;;;;;;1.60;1.50;;;;;;;25.93;nan;95480.91;4960819;28;20206;-69
2022/06/16 08:20:53;;;;;;;2.20;1.40;;;;;;;26.24;nan;95473.06;4955355;28;20255;-69
2022/06/16 08:23:20;;;;;;;1.70;1.60;;;;;;;26.92;nan;95480.00;4951564;28;20196;-70
2022/06/16 08:25:48;;;;;;;2.57;1.90;;;;;;;26.88;nan;95489.88;4950858;28;20377;-70
2022/06/16 08:28:18;;;;;;;2.50;2.07;;;;;;;26.94;nan;95483.13;4939105;29;20199;-69
2022/06/16 08:30:45;;;;;;;2.00;1.83;;;;;;;26.64;nan;95487.25;4951628;28;20196;-69
2022/06/16 08:33:15;;;;;;;2.20;2.00;;;;;;;27.09;nan;95486.97;4951599;28;20211;-70
2022/06/16 08:35:44;;;;;;;2.03;1.13;;;;;;;26.36;nan;95483.78;4952269;28;20577;-70
2022/06/16 08:38:11;;;;;;;2.03;1.83;;;;;;;26.64;nan;95478.44;4952037;28;20207;-69
2022/06/16 08:40:46;;;;;;;1.60;1.50;;;;;;;26.50;nan;95491.44;4951602;28;20211;-70
2022/06/16 08:43:31;;;;;;;1.87;1.53;;;;;;;26.31;nan;95472.50;4937721;28;20448;-72
2022/06/16 08:46:03;;;;;;;3.33;2.13;;;;;;;26.69;nan;95481.69;4963029;28;20234;-69
2022/06/16 08:48:58;;;;;;;1.60;1.50;;;;;;;26.45;nan;95487.13;4955103;28;20269;-69
2022/06/16 08:51:45;;;;;;;2.63;2.17;;;;;;;27.22;nan;95479.59;4942791;28;20208;-69
2022/06/16 08:54:33;;;;;;;3.13;1.83;;;;;;;26.92;nan;95480.00;4954414;28;20664;-69
2022/06/16 08:57:06;;;;;;;1.77;1.60;;;;;;;27.04;nan;95463.78;4954717;28;20202;-69
2022/06/16 08:59:53;;;;;;;2.03;1.37;;;;;;;27.40;nan;95472.78;4955133;28;20207;-69
2022/06/16 09:02:41;;;;;;;2.03;1.83;;;;;;;27.72;nan;95468.91;4954793;28;20203;-68
2022/06/16 09:05:33;;;;;;;1.80;1.10;;;;;;;26.86;nan;95475.97;4954273;28;20251;-69
2022/06/16 09:08:21;;;;;;;1.37;1.27;;;;;;;27.76;nan;95469.78;4955210;28;20196;-68
2022/06/16 09:11:03;;;;;;;3.20;2.13;;;;;;;27.70;nan;95468.50;4954959;29;20199;-69
2022/06/16 09:13:40;;;;;;;1.97;1.40;;;;;;;27.91;nan;95466.28;4954918;28;20265;-68
2022/06/16 09:16:10;;;;;;;4.10;2.43;;;;;;;27.83;nan;95459.16;4954524;28;20202;-72
2022/06/16 09:19:02;;;;;;;2.87;2.63;;;;;;;27.51;nan;95474.59;4954257;28;20211;-68
2022/06/16 09:21:35;;;;;;;1.70;1.60;;;;;;;27.40;nan;95472.78;4954791;28;20188;-68
2022/06/16 09:24:04;;;;;;;2.23;2.03;;;;;;;27.64;nan;95461.81;4954263;28;20188;-68
2022/06/16 09:26:38;;;;;;;1.30;1.20;;;;;;;27.32;nan;95462.94;4941421;29;20196;-67
2022/06/16 09:29:14;;;;;;;2.27;1.57;;;;;;;27.76;nan;95448.22;4954056;28;20254;-68
2022/06/16 09:32:11;;;;;;;2.40;2.20;;;;;;;28.03;nan;95450.00;4941803;28;20210;-68
2022/06/16 09:34:49;;;;;;;1.40;1.20;;;;;;;28.19;nan;95440.00;4953540;28;20200;-69
2022/06/16 09:37:21;;;;;;;1.30;1.20;;;;;;;28.50;nan;95442.53;4953966;28;20278;-69
2022/06/16 09:39:55;;;;;;;1.90;1.63;;;;;;;28.46;nan;95439.00;4954043;28;20215;-70
2022/06/16 09:42:35;;;;;;;2.17;2.07;;;;;;;28.52;nan;95432.19;4953873;28;20197;-70
2022/06/16 09:45:31;;;;;;;2.03;1.67;;;;;;;28.69;nan;95437.16;4953427;28;20603;-69
2022/06/16 09:48:05;;;;;;;1.20;1.10;;;;;;;28.85;nan;95440.53;4953848;28;20318;-69
2022/06/16 09:50:38;;;;;;;2.17;1.53;;;;;;;28.55;nan;95439.59;4953414;28;20208;-70
2022/06/16 09:53:11;;;;;;;1.13;1.10;;;;;;;27.57;nan;95437.41;4953633;28;20199;-67
2022/06/16 09:55:44;;;;;;;1.53;1.40;;;;;;;28.64;nan;95431.28;4953309;28;20639;-70
2022/06/16 09:58:20;;;;;;;3.10;0.90;;;;;;;28.88;nan;95429.03;4953757;28;20222;-69
2022/06/16 10:00:50;;;;;;;1.63;1.53;;;;;;;29.43;nan;95432.31;4957249;28;20206;-70
2022/06/16 10:03:29;;;;;;;1.63;1.43;;;;;;;28.80;nan;95421.94;4971923;28;20239;-70
2022/06/16 10:06:12;;;;;;;0.97;0.97;;;;;;;28.68;nan;95432.91;4954445;28;20695;-69
2022/06/16 10:08:57;;;;;;;1.33;1.23;;;;;;;28.66;nan;95424.41;4953864;28;20199;-69
2022/06/16 10:11:42;;;;;;;1.40;1.20;;;;;;;29.04;nan;95428.13;4941793;28;20200;-68
2022/06/16 10:14:14;;;;;;;0.93;0.80;;;;;;;29.08;nan;95426.28;4953021;28;20599;-69
2022/06/16 10:17:04;;;;;;;1.47;1.13;;;;;;;29.17;nan;95424.16;4953600;28;20222;-69
2022/06/16 10:19:34;;;;;;;3.30;1.87;;;;;;;29.39;nan;95423.38;4953302;28;20219;-68
2022/06/16 10:22:02;;;;;;;1.57;1.47;;;;;;;29.36;nan;95421.41;4952958;28;20204;-69
2022/06/16 10:24:45;;;;;;;2.93;2.40;;;;;;;29.36;nan;95410.59;4952513;28;20675;-69
2022/06/16 10:27:15;;;;;;;1.60;1.50;;;;;;;29.69;nan;95410.72;4953571;28;20229;-69
2022/06/16 10:29:57;;;;;;;1.13;0.97;;;;;;;29.41;nan;95415.69;4952950;28;20596;-70
2022/06/16 10:32:44;;;;;;;2.70;1.23;;;;;;;30.03;nan;95411.59;4952989;29;20212;-70
2022/06/16 10:35:17;;;;;;;3.47;2.93;;;;;;;29.34;nan;95418.28;4940536;28;20667;-69
2022/06/16 10:37:51;;;;;;;1.63;1.27;;;;;;;29.23;nan;95395.72;4953386;28;20207;-70
2022/06/16 10:40:39;;;;;;;2.37;2.17;;;;;;;29.31;nan;95403.56;4971840;28;20245;-68
2022/06/16 10:43:27;;;;;;;1.40;1.23;;;;;;;29.20;nan;95394.53;4952688;28;20202;-68
2022/06/16 10:46:14;;;;;;;1.77;1.67;;;;;;;29.82;nan;95401.25;4956929;28;20231;-69
2022/06/16 10:48:53;;;;;;;2.13;1.60;;;;;;;30.62;nan;95389.94;4952374;28;20199;-68
2022/06/16 10:51:22;;;;;;;3.83;2.23;;;;;;;30.40;nan;95388.16;4952728;28;20249;-68
2022/06/16 10:54:11;;;;;;;2.97;1.70;;;;;;;30.31;nan;95391.13;4952270;28;20208;-69
2022/06/16 10:56:43;;;;;;;2.10;1.90;;;;;;;30.70;nan;95392.34;4952293;28;20227;-69
2022/06/16 10:59:26;;;;;;;1.17;1.07;;;;;;;30.31;nan;95396.53;4952417;28;20751;-71
2022/06/16 11:02:17;;;;;;;1.07;1.03;;;;;;;30.97;nan;95389.53;4952430;28;20635;-69
2022/06/16 11:04:51;;;;;;;1.07;1.07;;;;;;;30.62;nan;95392.66;4951765;28;20228;-70
2022/06/16 11:07:21;;;;;;;1.33;1.00;;;;;;;30.23;nan;95383.28;4965583;28;20202;-68
2022/06/16 11:09:49;;;;;;;0.90;0.90;;;;;;;30.63;nan;95389.56;4952169;28;20202;-69
2022/06/16 11:12:22;;;;;;;1.20;0.90;;;;;;;31.23;nan;95381.25;4952289;28;20200;-68
2022/06/16 11:14:55;;;;;;;1.60;1.50;;;;;;;30.74;nan;95385.03;4952121;28;20666;-68
2022/06/16 11:17:37;;;;;;;1.20;1.10;;;;;;;29.94;nan;95382.16;4950341;28;20256;-70
2022/06/16 11:20:21;;;;;;;1.90;1.47;;;;;;;30.42;nan;95385.84;4943016;28;20208;-69
2022/06/16 11:22:50;;;;;;;1.13;1.03;;;;;;;31.12;nan;95383.88;4950876;28;20207;-69
2022/06/16 11:25:34;;;;;;;1.10;1.00;;;;;;;30.82;nan;95378.56;4947415;28;20235;-70
2022/06/16 11:28:12;;;;;;;0.77;0.70;;;;;;;30.56;nan;95380.59;4949156;28;20192;-69
2022/06/16 11:30:47;;;;;;;2.07;1.60;;;;;;;30.84;nan;95372.78;4936849;28;20203;-69
2022/06/16 11:36:21;;;;;;;1.17;1.03;;;;;;;31.06;nan;95371.06;4941155;29;20206;-69
2022/06/16 11:39:06;;;;;;;1.63;1.53;;;;;;;30.97;nan;95362.47;4950853;28;20215;-70
2022/06/16 11:41:33;;;;;;;3.77;2.20;;;;;;;30.95;nan;95370.19;4950532;28;20203;-68
2022/06/16 11:44:10;;;;;;;2.20;2.03;;;;;;;31.64;nan;95359.13;4951334;28;20200;-70
2022/06/16 11:46:49;;;;;;;1.60;1.40;;;;;;;31.65;nan;95365.31;4963874;28;20233;-67
2022/06/16 11:49:41;;;;;;;6.23;2.53;;;;;;;31.62;nan;95366.84;4938516;29;20633;-68
2022/06/16 11:52:35;;;;;;;1.40;1.30;;;;;;;31.88;nan;95348.81;4961603;28;20257;-70
2022/06/16 11:55:19;;;;;;;1.80;1.47;;;;;;;31.54;nan;95364.47;4963273;28;20199;-70
2022/06/16 11:58:07;;;;;;;1.53;1.13;;;;;;;31.30;nan;95354.22;4950728;28;20678;-69
2022/06/16 12:01:01;;;;;;;1.43;1.23;;;;;;;31.37;nan;95357.78;4949601;28;20817;-70
2022/06/16 12:03:56;;;;;;;1.07;0.97;;;;;;;31.83;nan;95352.66;4950795;28;20235;-70
2022/06/16 12:07:05;;;;;;;1.80;1.70;;;;;;;31.35;nan;95351.19;4950216;28;20227;-69
2022/06/16 12:09:45;;;;;;;2.03;1.73;;;;;;;31.83;nan;95344.53;4932639;28;20246;-69
2022/06/16 12:12:18;;;;;;;2.43;1.60;;;;;;;31.50;nan;95342.00;4964142;28;20685;-70
2022/06/16 12:14:50;;;;;;;1.10;1.10;;;;;;;31.17;nan;95345.59;4962544;28;20716;-69
2022/06/16 12:17:27;;;;;;;1.77;1.67;;;;;;;31.88;nan;95338.72;4963300;28;20195;-70
2022/06/16 12:20:11;;;;;;;1.63;1.53;;;;;;;31.89;nan;95343.03;4950336;28;20718;-69
2022/06/16 12:23:18;;;;;;;1.57;1.27;;;;;;;32.19;nan;95329.97;4936467;29;20679;-70
2022/06/16 12:26:00;;;;;;;2.07;1.90;;;;;;;32.53;nan;95334.00;4950899;28;20764;-69
2022/06/16 12:29:02;;;;;;;1.40;1.30;;;;;;;32.14;nan;95332.28;4943118;28;20195;-69
2022/06/16 12:31:38;;;;;;;1.40;1.30;;;;;;;32.51;nan;95336.31;4958559;28;20199;-68
2022/06/16 12:34:27;;;;;;;1.80;1.70;;;;;;;32.91;nan;95329.00;4961118;28;20675;-69
2022/06/16 12:36:59;;;;;;;2.03;1.63;;;;;;;32.25;nan;95330.38;4942123;28;20306;-69
2022/06/16 12:39:55;;;;;;;3.50;2.63;;;;;;;31.11;nan;95319.28;4953562;28;20215;-71
2022/06/16 12:42:26;;;;;;;1.50;1.40;;;;;;;31.74;nan;95325.91;4928725;28;20199;-70
2022/06/16 12:45:02;;;;;;;2.30;2.03;;;;;;;31.85;nan;95336.78;4953149;28;20301;-69
2022/06/16 12:47:36;;;;;;;1.47;1.23;;;;;;;32.42;nan;95305.28;4940236;29;20191;-67
2022/06/16 12:50:14;;;;;;;1.97;1.73;;;;;;;32.42;nan;95327.00;4953304;28;20195;-69